sensor_id;sensor_type;location;lat;lon;timestamp;P1;durP1;ratioP1;P2;durP2;ratioP2
20491;SDS011;10404;51.468;6.762;2024-01-27T04:56:27;5.72;;;2.17;;
20491;SDS011;10404;51.468;6.762;2024-01-27T04:58:53;6.40;;;2.55;;
20491;SDS011;10404;51.468;6.762;2024-01-27T05:01:18;5.25;;;2.67;;
20491;SDS011;10404;51.468;6.762;2024-01-27T07:12:22;5.25;;;2.40;;
20491;SDS011;10404;51.468;6.762;2024-01-27T07:14:48;8.98;;;3.00;;
20491;SDS011;10404;51.468;6.762;2024-01-27T07:17:13;4.63;;;2.28;;
20491;SDS011;10404;51.468;6.762;2024-01-27T07:19:39;6.05;;;2.20;;
20491;SDS011;10404;51.468;6.762;2024-01-27T07:22:04;5.40;;;3.03;;
20491;SDS011;10404;51.468;6.762;2024-01-27T07:24:30;6.65;;;2.80;;
20491;SDS011;10404;51.468;6.762;2024-01-27T07:26:56;6.30;;;3.03;;
20491;SDS011;10404;51.468;6.762;2024-01-27T07:29:23;3.90;;;2.65;;
20491;SDS011;10404;51.468;6.762;2024-01-27T14:46:18;6.78;;;2.50;;
20491;SDS011;10404;51.468;6.762;2024-01-27T14:48:44;5.05;;;1.63;;
20491;SDS011;10404;51.468;6.762;2024-01-27T14:51:10;5.78;;;1.92;;
20491;SDS011;10404;51.468;6.762;2024-01-27T14:53:37;8.65;;;3.08;;
20491;SDS011;10404;51.468;6.762;2024-01-27T14:56:03;6.57;;;2.88;;
20491;SDS011;10404;51.468;6.762;2024-01-27T14:58:29;9.75;;;2.88;;
20491;SDS011;10404;51.468;6.762;2024-01-27T15:00:55;4.32;;;2.25;;
20491;SDS011;10404;51.468;6.762;2024-01-27T15:03:21;11.35;;;2.60;;
20491;SDS011;10404;51.468;6.762;2024-01-27T15:05:51;6.75;;;2.47;;
20491;SDS011;10404;51.468;6.762;2024-01-27T15:08:17;6.30;;;2.03;;
20491;SDS011;10404;51.468;6.762;2024-01-27T15:10:43;8.60;;;2.10;;
20491;SDS011;10404;51.468;6.762;2024-01-27T15:13:09;6.90;;;2.38;;
20491;SDS011;10404;51.468;6.762;2024-01-27T15:15:36;8.77;;;2.97;;
20491;SDS011;10404;51.468;6.762;2024-01-27T15:18:02;5.93;;;2.45;;
20491;SDS011;10404;51.468;6.762;2024-01-27T15:20:28;5.55;;;1.83;;
20491;SDS011;10404;51.468;6.762;2024-01-27T15:22:54;5.20;;;1.75;;
20491;SDS011;10404;51.468;6.762;2024-01-27T15:25:20;7.18;;;2.10;;
20491;SDS011;10404;51.468;6.762;2024-01-27T15:27:46;5.15;;;2.03;;
20491;SDS011;10404;51.468;6.762;2024-01-27T15:30:13;5.32;;;1.77;;
20491;SDS011;10404;51.468;6.762;2024-01-27T15:32:38;4.65;;;1.58;;
20491;SDS011;10404;51.468;6.762;2024-01-27T15:35:05;5.82;;;1.95;;
20491;SDS011;10404;51.468;6.762;2024-01-27T15:37:31;5.00;;;1.70;;
20491;SDS011;10404;51.468;6.762;2024-01-27T15:39:56;6.40;;;1.45;;
20491;SDS011;10404;51.468;6.762;2024-01-27T15:42:22;6.15;;;1.70;;
20491;SDS011;10404;51.468;6.762;2024-01-27T15:44:48;5.60;;;1.90;;
20491;SDS011;10404;51.468;6.762;2024-01-27T15:47:13;5.10;;;1.80;;
20491;SDS011;10404;51.468;6.762;2024-01-27T15:49:39;4.93;;;2.00;;
20491;SDS011;10404;51.468;6.762;2024-01-27T15:52:06;4.65;;;1.60;;
20491;SDS011;10404;51.468;6.762;2024-01-27T15:54:32;7.97;;;2.00;;
20491;SDS011;10404;51.468;6.762;2024-01-27T15:56:58;4.65;;;1.77;;
20491;SDS011;10404;51.468;6.762;2024-01-27T15:59:23;7.78;;;1.73;;
20491;SDS011;10404;51.468;6.762;2024-01-27T16:01:49;5.78;;;1.80;;
20491;SDS011;10404;51.468;6.762;2024-01-27T16:04:15;6.05;;;1.23;;
20491;SDS011;10404;51.468;6.762;2024-01-27T16:06:40;3.95;;;1.92;;
20491;SDS011;10404;51.468;6.762;2024-01-27T16:09:06;5.85;;;1.60;;
20491;SDS011;10404;51.468;6.762;2024-01-27T16:11:31;4.25;;;1.40;;
20491;SDS011;10404;51.468;6.762;2024-01-27T16:13:57;4.03;;;2.03;;
20491;SDS011;10404;51.468;6.762;2024-01-27T16:16:23;5.85;;;1.88;;
20491;SDS011;10404;51.468;6.762;2024-01-27T16:18:50;4.47;;;2.28;;
20491;SDS011;10404;51.468;6.762;2024-01-27T16:21:16;5.43;;;1.70;;
20491;SDS011;10404;51.468;6.762;2024-01-27T16:23:41;3.35;;;1.40;;
20491;SDS011;10404;51.468;6.762;2024-01-27T16:26:07;5.20;;;1.90;;
20491;SDS011;10404;51.468;6.762;2024-01-27T16:28:33;7.60;;;1.90;;
20491;SDS011;10404;51.468;6.762;2024-01-27T16:31:02;5.50;;;1.83;;
20491;SDS011;10404;51.468;6.762;2024-01-27T16:33:28;4.35;;;1.52;;
20491;SDS011;10404;51.468;6.762;2024-01-27T16:35:53;5.32;;;1.50;;
20491;SDS011;10404;51.468;6.762;2024-01-27T16:38:19;6.93;;;1.83;;
20491;SDS011;10404;51.468;6.762;2024-01-27T16:40:44;4.47;;;1.63;;
20491;SDS011;10404;51.468;6.762;2024-01-27T16:43:10;5.93;;;2.40;;
20491;SDS011;10404;51.468;6.762;2024-01-27T16:45:36;6.00;;;2.30;;
20491;SDS011;10404;51.468;6.762;2024-01-27T16:48:01;5.18;;;1.67;;
20491;SDS011;10404;51.468;6.762;2024-01-27T16:50:28;3.75;;;1.40;;
20491;SDS011;10404;51.468;6.762;2024-01-27T16:52:55;5.93;;;2.15;;
20491;SDS011;10404;51.468;6.762;2024-01-27T16:55:21;6.70;;;2.15;;
20491;SDS011;10404;51.468;6.762;2024-01-27T16:57:46;6.15;;;2.03;;
20491;SDS011;10404;51.468;6.762;2024-01-27T17:00:12;4.97;;;1.90;;
20491;SDS011;10404;51.468;6.762;2024-01-27T17:02:38;5.75;;;2.20;;
20491;SDS011;10404;51.468;6.762;2024-01-27T17:05:04;4.78;;;1.77;;
20491;SDS011;10404;51.468;6.762;2024-01-27T17:07:30;5.95;;;2.15;;
20491;SDS011;10404;51.468;6.762;2024-01-27T17:09:57;5.95;;;1.83;;
20491;SDS011;10404;51.468;6.762;2024-01-27T17:12:29;3.60;;;1.55;;
20491;SDS011;10404;51.468;6.762;2024-01-27T17:14:57;6.70;;;2.22;;
20491;SDS011;10404;51.468;6.762;2024-01-27T17:17:23;5.35;;;1.90;;
20491;SDS011;10404;51.468;6.762;2024-01-27T17:19:48;4.55;;;2.33;;
20491;SDS011;10404;51.468;6.762;2024-01-27T17:22:14;4.65;;;2.20;;
20491;SDS011;10404;51.468;6.762;2024-01-27T17:24:39;4.88;;;2.83;;
20491;SDS011;10404;51.468;6.762;2024-01-27T17:27:05;6.25;;;3.25;;
20491;SDS011;10404;51.468;6.762;2024-01-27T17:29:30;12.43;;;5.70;;
20491;SDS011;10404;51.468;6.762;2024-01-27T17:31:58;9.45;;;5.30;;
20491;SDS011;10404;51.468;6.762;2024-01-27T17:34:24;10.77;;;5.07;;
20491;SDS011;10404;51.468;6.762;2024-01-27T17:36:49;9.45;;;4.43;;
20491;SDS011;10404;51.468;6.762;2024-01-27T17:39:15;7.47;;;5.20;;
20491;SDS011;10404;51.468;6.762;2024-01-27T17:41:42;12.27;;;5.80;;
20491;SDS011;10404;51.468;6.762;2024-01-27T17:44:08;12.30;;;5.07;;
20491;SDS011;10404;51.468;6.762;2024-01-27T17:46:34;11.68;;;5.70;;
20491;SDS011;10404;51.468;6.762;2024-01-27T17:48:59;9.43;;;4.88;;
20491;SDS011;10404;51.468;6.762;2024-01-27T17:51:25;10.30;;;5.47;;
20491;SDS011;10404;51.468;6.762;2024-01-27T17:53:51;8.55;;;5.95;;
20491;SDS011;10404;51.468;6.762;2024-01-27T17:56:23;12.48;;;6.20;;
20491;SDS011;10404;51.468;6.762;2024-01-27T17:58:51;9.20;;;6.00;;
20491;SDS011;10404;51.468;6.762;2024-01-27T18:01:17;11.15;;;5.80;;
20491;SDS011;10404;51.468;6.762;2024-01-27T18:03:43;11.15;;;5.18;;
20491;SDS011;10404;51.468;6.762;2024-01-27T18:06:08;12.30;;;6.38;;
20491;SDS011;10404;51.468;6.762;2024-01-27T18:08:34;12.00;;;5.82;;
20491;SDS011;10404;51.468;6.762;2024-01-27T18:11:00;10.38;;;5.82;;
20491;SDS011;10404;51.468;6.762;2024-01-27T18:13:25;8.63;;;5.72;;
20491;SDS011;10404;51.468;6.762;2024-01-27T18:15:51;10.77;;;6.00;;
20491;SDS011;10404;51.468;6.762;2024-01-27T18:18:17;11.02;;;5.90;;
20491;SDS011;10404;51.468;6.762;2024-01-27T18:20:42;11.30;;;6.30;;
20491;SDS011;10404;51.468;6.762;2024-01-27T18:23:08;10.15;;;6.63;;
20491;SDS011;10404;51.468;6.762;2024-01-27T18:25:34;9.75;;;6.10;;
20491;SDS011;10404;51.468;6.762;2024-01-27T18:27:59;12.32;;;5.97;;
20491;SDS011;10404;51.468;6.762;2024-01-27T18:30:25;10.95;;;6.55;;
20491;SDS011;10404;51.468;6.762;2024-01-27T18:32:51;9.68;;;6.03;;
20491;SDS011;10404;51.468;6.762;2024-01-27T18:35:16;11.70;;;6.43;;
20491;SDS011;10404;51.468;6.762;2024-01-27T18:37:42;9.63;;;5.68;;
20491;SDS011;10404;51.468;6.762;2024-01-27T18:40:08;9.73;;;5.80;;
20491;SDS011;10404;51.468;6.762;2024-01-27T18:42:34;9.35;;;6.30;;
20491;SDS011;10404;51.468;6.762;2024-01-27T18:44:59;9.68;;;6.05;;
20491;SDS011;10404;51.468;6.762;2024-01-27T18:47:26;12.52;;;6.40;;
20491;SDS011;10404;51.468;6.762;2024-01-27T18:49:54;8.55;;;5.97;;
20491;SDS011;10404;51.468;6.762;2024-01-27T18:52:20;10.68;;;5.93;;
20491;SDS011;10404;51.468;6.762;2024-01-27T18:54:46;11.55;;;6.53;;
20491;SDS011;10404;51.468;6.762;2024-01-27T18:57:12;10.82;;;6.63;;
20491;SDS011;10404;51.468;6.762;2024-01-27T18:59:37;11.57;;;6.28;;
20491;SDS011;10404;51.468;6.762;2024-01-27T19:02:03;8.38;;;5.80;;
20491;SDS011;10404;51.468;6.762;2024-01-27T19:04:29;11.27;;;6.85;;
20491;SDS011;10404;51.468;6.762;2024-01-27T19:06:55;11.52;;;6.20;;
20491;SDS011;10404;51.468;6.762;2024-01-27T19:09:20;13.50;;;6.57;;
20491;SDS011;10404;51.468;6.762;2024-01-27T19:11:46;10.55;;;6.32;;
20491;SDS011;10404;51.468;6.762;2024-01-27T19:14:12;7.78;;;6.28;;
20491;SDS011;10404;51.468;6.762;2024-01-27T19:16:38;9.50;;;5.57;;
20491;SDS011;10404;51.468;6.762;2024-01-27T19:19:04;9.35;;;6.78;;
20491;SDS011;10404;51.468;6.762;2024-01-27T19:21:30;12.10;;;6.47;;
20491;SDS011;10404;51.468;6.762;2024-01-27T19:23:56;8.43;;;5.95;;
20491;SDS011;10404;51.468;6.762;2024-01-27T19:26:21;10.15;;;6.35;;
20491;SDS011;10404;51.468;6.762;2024-01-27T19:28:47;9.45;;;5.82;;
20491;SDS011;10404;51.468;6.762;2024-01-27T19:31:13;12.57;;;6.60;;
20491;SDS011;10404;51.468;6.762;2024-01-27T19:33:39;9.23;;;5.78;;
20491;SDS011;10404;51.468;6.762;2024-01-27T19:36:05;9.85;;;6.30;;
20491;SDS011;10404;51.468;6.762;2024-01-27T19:38:31;10.15;;;6.88;;
20491;SDS011;10404;51.468;6.762;2024-01-27T19:40:57;9.70;;;6.35;;
20491;SDS011;10404;51.468;6.762;2024-01-27T19:43:22;12.20;;;7.18;;
20491;SDS011;10404;51.468;6.762;2024-01-27T19:45:48;9.57;;;5.68;;
20491;SDS011;10404;51.468;6.762;2024-01-27T19:48:14;9.60;;;5.68;;
20491;SDS011;10404;51.468;6.762;2024-01-27T19:50:39;10.65;;;5.95;;
20491;SDS011;10404;51.468;6.762;2024-01-27T19:53:05;9.73;;;5.63;;
20491;SDS011;10404;51.468;6.762;2024-01-27T19:55:35;9.57;;;6.22;;
20491;SDS011;10404;51.468;6.762;2024-01-27T19:58:01;8.43;;;5.50;;
20491;SDS011;10404;51.468;6.762;2024-01-27T20:00:28;12.45;;;6.68;;
20491;SDS011;10404;51.468;6.762;2024-01-27T20:02:55;8.05;;;5.97;;
20491;SDS011;10404;51.468;6.762;2024-01-27T20:05:21;10.55;;;6.28;;
20491;SDS011;10404;51.468;6.762;2024-01-27T20:07:47;8.90;;;6.07;;
20491;SDS011;10404;51.468;6.762;2024-01-27T20:10:12;11.65;;;6.10;;
20491;SDS011;10404;51.468;6.762;2024-01-27T20:12:38;9.88;;;5.97;;
20491;SDS011;10404;51.468;6.762;2024-01-27T20:15:05;10.02;;;5.82;;
20491;SDS011;10404;51.468;6.762;2024-01-27T20:17:31;11.90;;;6.20;;
20491;SDS011;10404;51.468;6.762;2024-01-27T20:19:57;10.18;;;6.25;;
20491;SDS011;10404;51.468;6.762;2024-01-27T20:22:23;10.88;;;6.35;;
20491;SDS011;10404;51.468;6.762;2024-01-27T20:24:49;10.82;;;6.40;;
20491;SDS011;10404;51.468;6.762;2024-01-27T20:27:16;12.48;;;6.28;;
20491;SDS011;10404;51.468;6.762;2024-01-27T20:29:42;13.48;;;6.90;;
20491;SDS011;10404;51.468;6.762;2024-01-27T20:32:08;13.68;;;6.68;;
20491;SDS011;10404;51.468;6.762;2024-01-27T20:34:34;11.98;;;7.03;;
20491;SDS011;10404;51.468;6.762;2024-01-27T20:37:00;11.68;;;7.80;;
20491;SDS011;10404;51.468;6.762;2024-01-27T20:39:26;10.80;;;6.45;;
20491;SDS011;10404;51.468;6.762;2024-01-27T20:41:51;12.73;;;6.90;;
20491;SDS011;10404;51.468;6.762;2024-01-27T20:44:17;12.65;;;6.40;;
20491;SDS011;10404;51.468;6.762;2024-01-27T20:46:42;10.35;;;5.85;;
20491;SDS011;10404;51.468;6.762;2024-01-27T20:49:10;11.43;;;6.60;;
20491;SDS011;10404;51.468;6.762;2024-01-27T20:51:36;13.73;;;6.50;;
20491;SDS011;10404;51.468;6.762;2024-01-27T20:54:03;11.15;;;6.70;;
20491;SDS011;10404;51.468;6.762;2024-01-27T20:56:28;11.23;;;6.22;;
20491;SDS011;10404;51.468;6.762;2024-01-27T20:58:54;11.48;;;6.40;;
20491;SDS011;10404;51.468;6.762;2024-01-27T21:01:20;11.23;;;6.78;;
20491;SDS011;10404;51.468;6.762;2024-01-27T21:03:47;11.57;;;7.38;;
20491;SDS011;10404;51.468;6.762;2024-01-27T21:06:12;9.13;;;6.30;;
20491;SDS011;10404;51.468;6.762;2024-01-27T21:08:38;11.18;;;6.35;;
20491;SDS011;10404;51.468;6.762;2024-01-27T21:11:04;8.68;;;6.50;;
20491;SDS011;10404;51.468;6.762;2024-01-27T21:16:00;9.55;;;5.85;;
20491;SDS011;10404;51.468;6.762;2024-01-27T21:18:25;11.98;;;6.50;;
20491;SDS011;10404;51.468;6.762;2024-01-27T21:20:53;11.80;;;7.03;;
20491;SDS011;10404;51.468;6.762;2024-01-27T21:23:19;10.32;;;6.40;;
20491;SDS011;10404;51.468;6.762;2024-01-27T21:25:45;10.82;;;6.28;;
20491;SDS011;10404;51.468;6.762;2024-01-27T21:28:11;13.07;;;6.93;;
20491;SDS011;10404;51.468;6.762;2024-01-27T21:30:37;11.95;;;6.28;;
20491;SDS011;10404;51.468;6.762;2024-01-27T21:33:02;11.25;;;6.32;;
20491;SDS011;10404;51.468;6.762;2024-01-27T21:35:28;12.68;;;7.38;;
20491;SDS011;10404;51.468;6.762;2024-01-27T21:37:58;12.88;;;7.47;;
20491;SDS011;10404;51.468;6.762;2024-01-27T21:40:24;14.32;;;8.15;;
20491;SDS011;10404;51.468;6.762;2024-01-27T21:42:50;12.85;;;7.32;;
20491;SDS011;10404;51.468;6.762;2024-01-27T21:45:16;11.23;;;7.38;;
20491;SDS011;10404;51.468;6.762;2024-01-27T21:47:42;10.63;;;6.82;;
20491;SDS011;10404;51.468;6.762;2024-01-27T21:50:08;12.82;;;7.78;;
20491;SDS011;10404;51.468;6.762;2024-01-27T21:52:37;13.60;;;8.38;;
20491;SDS011;10404;51.468;6.762;2024-01-27T21:55:03;14.00;;;7.47;;
20491;SDS011;10404;51.468;6.762;2024-01-27T21:57:29;13.82;;;7.50;;
20491;SDS011;10404;51.468;6.762;2024-01-27T21:59:55;14.18;;;8.02;;
20491;SDS011;10404;51.468;6.762;2024-01-27T22:02:20;12.60;;;8.38;;
20491;SDS011;10404;51.468;6.762;2024-01-27T22:04:46;13.32;;;7.32;;
20491;SDS011;10404;51.468;6.762;2024-01-27T22:07:13;11.02;;;7.80;;
20491;SDS011;10404;51.468;6.762;2024-01-27T22:09:39;9.10;;;6.10;;
20491;SDS011;10404;51.468;6.762;2024-01-27T22:12:05;10.38;;;6.78;;
20491;SDS011;10404;51.468;6.762;2024-01-27T22:14:31;10.00;;;6.65;;
20491;SDS011;10404;51.468;6.762;2024-01-27T22:16:57;13.27;;;7.25;;
20491;SDS011;10404;51.468;6.762;2024-01-27T22:19:22;13.57;;;7.97;;
20491;SDS011;10404;51.468;6.762;2024-01-27T22:21:48;11.43;;;6.85;;
20491;SDS011;10404;51.468;6.762;2024-01-27T22:24:18;11.02;;;6.88;;
20491;SDS011;10404;51.468;6.762;2024-01-27T22:26:45;12.43;;;6.93;;
20491;SDS011;10404;51.468;6.762;2024-01-27T22:29:10;13.90;;;7.75;;
20491;SDS011;10404;51.468;6.762;2024-01-27T22:31:36;10.88;;;6.65;;
20491;SDS011;10404;51.468;6.762;2024-01-27T22:34:01;11.60;;;6.20;;
20491;SDS011;10404;51.468;6.762;2024-01-27T22:36:27;13.75;;;6.75;;
20491;SDS011;10404;51.468;6.762;2024-01-27T22:38:52;10.40;;;6.50;;
20491;SDS011;10404;51.468;6.762;2024-01-27T22:41:18;9.73;;;6.57;;
20491;SDS011;10404;51.468;6.762;2024-01-27T22:43:43;9.77;;;6.03;;
20491;SDS011;10404;51.468;6.762;2024-01-27T22:46:09;11.52;;;7.00;;
20491;SDS011;10404;51.468;6.762;2024-01-27T22:48:35;8.43;;;5.35;;
20491;SDS011;10404;51.468;6.762;2024-01-27T22:51:00;9.40;;;5.50;;
20491;SDS011;10404;51.468;6.762;2024-01-27T22:53:26;7.97;;;5.82;;
20491;SDS011;10404;51.468;6.762;2024-01-27T22:55:51;9.00;;;5.70;;
20491;SDS011;10404;51.468;6.762;2024-01-27T22:58:17;10.48;;;5.57;;
20491;SDS011;10404;51.468;6.762;2024-01-27T23:00:42;9.88;;;5.78;;
20491;SDS011;10404;51.468;6.762;2024-01-27T23:03:08;12.35;;;6.22;;
20491;SDS011;10404;51.468;6.762;2024-01-27T23:05:37;10.60;;;6.15;;
20491;SDS011;10404;51.468;6.762;2024-01-27T23:08:03;10.18;;;5.75;;
20491;SDS011;10404;51.468;6.762;2024-01-27T23:10:29;12.05;;;4.85;;
20491;SDS011;10404;51.468;6.762;2024-01-27T23:13:01;8.60;;;5.60;;
20491;SDS011;10404;51.468;6.762;2024-01-27T23:15:28;8.60;;;5.53;;
20491;SDS011;10404;51.468;6.762;2024-01-27T23:17:54;8.80;;;5.35;;
20491;SDS011;10404;51.468;6.762;2024-01-27T23:20:20;8.25;;;4.97;;
20491;SDS011;10404;51.468;6.762;2024-01-27T23:22:45;9.15;;;5.45;;
20491;SDS011;10404;51.468;6.762;2024-01-27T23:25:11;9.35;;;5.72;;
20491;SDS011;10404;51.468;6.762;2024-01-27T23:27:37;7.85;;;5.05;;
20491;SDS011;10404;51.468;6.762;2024-01-27T23:30:03;7.47;;;4.55;;
20491;SDS011;10404;51.468;6.762;2024-01-27T23:32:30;9.27;;;4.82;;
20491;SDS011;10404;51.468;6.762;2024-01-27T23:34:56;9.23;;;5.40;;
20491;SDS011;10404;51.468;6.762;2024-01-27T23:37:22;6.82;;;5.32;;
20491;SDS011;10404;51.468;6.762;2024-01-27T23:39:48;6.72;;;4.32;;
20491;SDS011;10404;51.468;6.762;2024-01-27T23:42:13;8.20;;;4.80;;
20491;SDS011;10404;51.468;6.762;2024-01-27T23:44:39;9.80;;;5.05;;
20491;SDS011;10404;51.468;6.762;2024-01-27T23:47:05;7.32;;;4.43;;
20491;SDS011;10404;51.468;6.762;2024-01-27T23:49:30;9.60;;;4.90;;
20491;SDS011;10404;51.468;6.762;2024-01-27T23:51:56;6.03;;;3.95;;
20491;SDS011;10404;51.468;6.762;2024-01-27T23:54:22;7.10;;;4.63;;
20491;SDS011;10404;51.468;6.762;2024-01-27T23:56:47;8.00;;;4.15;;
20491;SDS011;10404;51.468;6.762;2024-01-27T23:59:13;7.05;;;4.43;;
